Industry, Iowa
Current Conditions -  °F | °C
As of 10:15 AM on Saturday 25 Oct 2014 (Local Time) from KSLB Reporting Station
Clear Clear  
Wind Chill: 59°   Ceiling: Unl
Heat Index: 59°   Visibility: 10mi
Dew Point: 37°   Wind: 9mph
Humidity: 45%   Direction: 30°NNE
Pressure: 30.14"   Gusts: NA
Location:  42.6318°N, 94.8166°W
Report Text: KSLB 251515Z AUTO 03008KT 10SM CLR 15/03 A3014 RMK AO2
Loading
Personal Weather Stations






























Interactive Weather Map
Tropical Storm Tracking
New forecast layout! Learn more

10-Day Weather Forecast

Advertisements
Track Severe Weather on mobile